createdAt,value
2023-05-23T00:04:17.334Z,45.78
2023-05-23T00:09:19.730Z,41.80
2023-05-23T00:14:21.723Z,41.03
2023-05-23T00:19:23.633Z,45.00
2023-05-23T00:24:25.902Z,41.42
2023-05-23T00:29:27.746Z,42.53
2023-05-23T00:34:29.554Z,45.13
2023-05-23T00:39:31.652Z,36.80
2023-05-23T00:44:36.239Z,39.85
2023-05-23T00:49:38.082Z,45.03
2023-05-23T00:54:40.151Z,44.03
2023-05-23T00:59:43.463Z,36.05
2023-05-23T01:04:45.308Z,33.00
2023-05-23T01:09:47.547Z,47.45
2023-05-23T01:15:06.711Z,37.05
2023-05-23T01:20:12.901Z,43.25
2023-05-23T01:25:42.573Z,32.95
2023-05-23T01:30:47.048Z,40.22
2023-05-23T01:35:49.537Z,47.90
2023-05-23T01:40:51.478Z,40.40
2023-05-23T01:45:57.456Z,33.65
2023-05-23T01:50:59.560Z,36.17
2023-05-23T01:56:03.553Z,35.90
2023-05-23T02:01:05.572Z,27.98
2023-05-23T02:06:07.827Z,28.58
2023-05-23T02:11:10.689Z,26.90
2023-05-23T02:16:14.046Z,37.25
2023-05-23T02:21:15.878Z,31.63
2023-05-23T02:26:18.246Z,28.38
2023-05-23T02:31:20.137Z,33.75
2023-05-23T02:36:21.957Z,26.10
2023-05-23T02:41:23.774Z,26.48
2023-05-23T02:46:26.096Z,21.45
2023-05-23T02:51:27.969Z,20.75
2023-05-23T02:56:29.825Z,19.13
2023-05-23T03:01:31.725Z,23.90
2023-05-23T03:06:36.893Z,25.73
2023-05-23T03:11:38.894Z,27.40
2023-05-23T03:16:40.867Z,28.05
2023-05-23T03:21:44.297Z,22.20
2023-05-23T03:26:46.115Z,32.78
2023-05-23T03:31:47.933Z,27.85
2023-05-23T03:36:50.076Z,31.30
2023-05-23T03:41:51.945Z,29.80
2023-05-23T03:46:53.868Z,31.02
2023-05-23T03:51:55.880Z,42.17
2023-05-23T03:56:57.798Z,35.00
2023-05-23T04:02:01.222Z,34.08
2023-05-23T04:07:03.229Z,40.17
2023-05-23T04:12:06.111Z,30.58
2023-05-23T04:17:09.134Z,34.55
2023-05-23T04:22:10.981Z,38.13
2023-05-23T04:27:13.742Z,29.40
2023-05-23T04:32:19.485Z,26.33
2023-05-23T04:37:26.204Z,25.80
2023-05-23T04:42:29.367Z,21.45
2023-05-23T04:47:37.025Z,24.10
2023-05-23T04:52:39.134Z,25.95
2023-05-23T04:57:41.081Z,18.08
2023-05-23T05:02:43.685Z,18.08
2023-05-23T05:07:45.583Z,26.23
2023-05-23T05:12:49.642Z,15.18
2023-05-23T05:17:51.512Z,14.13
2023-05-23T05:22:58.046Z,17.73
2023-05-23T05:28:06.054Z,18.00
2023-05-23T05:33:08.172Z,17.35
2023-05-23T05:38:11.124Z,21.58
2023-05-23T05:43:12.993Z,13.02
2023-05-23T05:48:14.839Z,20.10
2023-05-23T05:53:17.036Z,18.42
2023-05-23T05:58:19.219Z,15.35
2023-05-23T06:03:21.381Z,18.15
2023-05-23T06:08:23.443Z,23.90
2023-05-23T06:13:25.566Z,25.00
2023-05-23T06:18:27.409Z,18.83
2023-05-23T06:23:29.258Z,26.05
2023-05-23T06:28:31.056Z,30.20
2023-05-23T06:33:36.485Z,28.08
2023-05-23T06:38:38.317Z,26.60
2023-05-23T06:43:40.204Z,24.77
2023-05-23T06:48:42.106Z,28.23
2023-05-23T06:53:44.040Z,22.63
2023-05-23T06:58:47.172Z,23.83
2023-05-23T07:03:49.135Z,19.90
2023-05-23T07:08:51.032Z,19.60
2023-05-23T07:13:52.837Z,18.80
2023-05-23T07:18:54.702Z,11.10
2023-05-23T07:23:56.516Z,11.48
2023-05-23T07:28:58.944Z,10.55
2023-05-23T07:34:01.092Z,10.30
2023-05-23T07:39:02.995Z,14.88
2023-05-23T07:44:04.904Z,8.93
2023-05-23T07:49:06.742Z,14.35
2023-05-23T07:54:08.639Z,10.68
2023-05-23T07:59:10.510Z,16.50
2023-05-23T08:04:12.618Z,11.43
2023-05-23T08:09:14.549Z,9.65
2023-05-23T08:14:16.403Z,15.73
2023-05-23T08:19:18.247Z,10.57
2023-05-23T08:24:21.601Z,11.88
2023-05-23T08:29:23.436Z,12.50
2023-05-23T08:34:25.305Z,12.85
2023-05-23T08:39:27.188Z,19.85
2023-05-23T08:44:29.013Z,16.05
2023-05-23T08:49:31.824Z,13.88
2023-05-23T08:54:34.221Z,9.38
2023-05-23T08:59:37.470Z,17.08
2023-05-23T09:04:39.300Z,13.13
2023-05-23T09:09:41.704Z,10.93
2023-05-23T09:14:44.873Z,12.57
2023-05-23T09:19:49.596Z,8.32
2023-05-23T09:24:53.116Z,10.88
2023-05-23T09:29:55.030Z,8.18
2023-05-23T09:35:04.807Z,15.98
2023-05-23T09:40:11.844Z,9.70
2023-05-23T09:45:15.587Z,23.10
2023-05-23T09:50:17.679Z,11.85
2023-05-23T09:55:19.883Z,14.85
2023-05-23T10:00:23.419Z,13.60
2023-05-23T10:05:31.609Z,8.93
2023-05-23T10:10:34.041Z,13.23
2023-05-23T10:15:40.174Z,10.35
2023-05-23T10:20:47.644Z,9.35
2023-05-23T10:25:51.023Z,11.57
2023-05-23T10:30:53.059Z,11.80
2023-05-23T10:36:05.119Z,22.90
2023-05-23T10:41:20.155Z,14.18
2023-05-23T10:46:22.785Z,13.95
2023-05-23T10:51:25.024Z,10.00
2023-05-23T10:56:31.927Z,9.65
2023-05-23T11:01:39.555Z,7.90
2023-05-23T11:06:44.289Z,7.90
2023-05-23T11:11:57.437Z,9.50
2023-05-23T11:17:20.466Z,13.45
2023-05-23T11:22:27.238Z,5.95
2023-05-23T11:27:38.125Z,9.63
2023-05-23T11:32:40.706Z,6.68
2023-05-23T11:37:44.272Z,9.15
2023-05-23T11:42:46.172Z,12.05
2023-05-23T11:47:48.070Z,9.77
2023-05-23T11:52:53.838Z,5.43
2023-05-23T11:57:57.265Z,6.90
2023-05-23T12:02:59.247Z,8.65
2023-05-23T12:08:01.349Z,10.70
2023-05-23T12:13:04.979Z,7.40
2023-05-23T12:18:08.655Z,7.63
2023-05-23T12:23:19.443Z,13.23
2023-05-23T12:28:43.600Z,11.32
2023-05-23T12:33:48.740Z,6.75
2023-05-23T12:38:51.486Z,10.10
2023-05-23T12:43:57.265Z,7.55
2023-05-23T12:48:59.537Z,8.85
2023-05-23T12:54:02.071Z,9.48
2023-05-23T12:59:04.289Z,13.35
2023-05-23T13:04:06.296Z,12.25
2023-05-23T13:09:08.185Z,9.73
2023-05-23T13:14:10.004Z,12.45
2023-05-23T13:19:12.334Z,9.75
2023-05-23T13:24:14.162Z,7.65
2023-05-23T13:29:16.216Z,12.23
2023-05-23T13:34:18.052Z,13.18
2023-05-23T13:39:22.782Z,10.85
2023-05-23T13:44:24.670Z,9.40
2023-05-23T13:49:26.552Z,11.75
2023-05-23T13:54:28.406Z,7.85
2023-05-23T13:59:30.615Z,9.45
2023-05-23T14:04:33.264Z,11.20
2023-05-23T14:09:35.154Z,9.50
2023-05-23T14:14:37.222Z,6.43
2023-05-23T14:19:39.117Z,18.63
2023-05-23T14:24:41.124Z,16.98
2023-05-23T14:29:46.443Z,13.82
2023-05-23T14:34:48.381Z,8.80
2023-05-23T14:39:50.370Z,15.45
2023-05-23T14:44:55.890Z,15.82
2023-05-23T14:49:57.761Z,8.82
2023-05-23T14:55:01.075Z,10.65
2023-05-23T15:00:05.747Z,12.00
2023-05-23T15:05:07.939Z,12.55
2023-05-23T15:10:10.022Z,13.90
2023-05-23T15:15:12.041Z,9.68
2023-05-23T15:20:13.928Z,9.98
2023-05-23T15:25:15.952Z,9.10
2023-05-23T15:30:17.781Z,5.18
2023-05-23T15:35:20.308Z,9.65
2023-05-23T15:40:22.207Z,7.82
2023-05-23T15:45:24.053Z,7.80
2023-05-23T15:50:25.870Z,12.55
2023-05-23T15:55:27.699Z,13.07
2023-05-23T16:00:29.557Z,14.70
2023-05-23T16:05:31.453Z,12.05
2023-05-23T16:10:33.714Z,11.93
2023-05-23T16:15:35.820Z,12.68
2023-05-23T16:20:37.717Z,10.57
2023-05-23T16:25:39.728Z,12.27
2023-05-23T16:30:41.700Z,12.73
2023-05-23T16:35:43.714Z,20.88
2023-05-23T16:40:45.652Z,8.90
2023-05-23T16:45:47.739Z,6.90
2023-05-23T16:50:49.858Z,8.48
2023-05-23T16:55:51.911Z,9.23
2023-05-23T17:00:53.775Z,15.57
2023-05-23T17:05:55.988Z,12.50
2023-05-23T17:10:57.821Z,12.13
2023-05-23T17:15:59.676Z,15.15
2023-05-23T17:21:01.633Z,13.85
2023-05-23T17:26:03.484Z,15.27
2023-05-23T17:31:05.640Z,11.57
2023-05-23T17:36:07.621Z,11.82
2023-05-23T17:41:09.498Z,11.88
2023-05-23T17:46:11.487Z,16.35
2023-05-23T17:51:13.427Z,11.13
2023-05-23T17:56:15.734Z,9.73
2023-05-23T18:01:17.695Z,11.63
2023-05-23T18:06:19.535Z,8.68
2023-05-23T18:11:22.189Z,18.30
2023-05-23T18:16:24.016Z,11.82
2023-05-23T18:21:26.975Z,20.10
2023-05-23T18:26:29.019Z,8.63
2023-05-23T18:31:30.810Z,13.15
2023-05-23T18:36:33.057Z,10.05
2023-05-23T18:41:34.882Z,14.80
2023-05-23T18:46:36.925Z,9.90
2023-05-23T18:51:38.945Z,6.95
2023-05-23T18:56:40.837Z,13.40
2023-05-23T19:01:42.883Z,8.65
2023-05-23T19:06:45.716Z,9.32
2023-05-23T19:11:47.718Z,13.90
2023-05-23T19:16:49.740Z,9.93
2023-05-23T19:21:51.674Z,10.50
2023-05-23T19:26:53.843Z,7.43
2023-05-23T19:31:55.799Z,25.00
2023-05-23T19:36:58.017Z,5.78
2023-05-23T19:41:59.906Z,11.00
2023-05-23T19:47:01.719Z,12.60
2023-05-23T19:52:03.768Z,10.27
2023-05-23T19:57:06.148Z,11.02
2023-05-23T20:02:08.077Z,14.90
2023-05-23T20:07:09.991Z,11.80
2023-05-23T20:12:11.922Z,15.15
2023-05-23T20:17:13.790Z,7.43
2023-05-23T20:22:16.039Z,13.32
2023-05-23T20:27:17.897Z,9.80
2023-05-23T20:32:19.772Z,15.75
2023-05-23T20:37:21.812Z,7.60
2023-05-23T20:42:24.700Z,11.75
2023-05-23T20:47:26.639Z,11.18
2023-05-23T20:52:30.005Z,8.30
2023-05-23T20:57:32.498Z,13.13
2023-05-23T21:02:34.437Z,15.07
2023-05-23T21:07:36.640Z,17.90
2023-05-23T21:12:38.817Z,15.90
2023-05-23T21:17:40.632Z,13.18
2023-05-23T21:22:42.503Z,17.95
2023-05-23T21:27:44.413Z,10.02
2023-05-23T21:32:46.466Z,12.15
2023-05-23T21:37:48.355Z,18.63
2023-05-23T21:42:50.164Z,21.52
2023-05-23T21:47:52.199Z,9.00
2023-05-23T21:52:54.203Z,8.13
2023-05-23T21:57:56.023Z,11.82
2023-05-23T22:02:58.006Z,11.70
2023-05-23T22:07:59.904Z,10.00
2023-05-23T22:13:01.733Z,15.10
2023-05-23T22:18:04.336Z,8.05
2023-05-23T22:23:07.467Z,17.15
2023-05-23T22:28:09.273Z,10.85
2023-05-23T22:33:13.250Z,11.55
2023-05-23T22:38:15.144Z,16.63
2023-05-23T22:43:17.479Z,12.95
2023-05-23T22:48:19.454Z,16.30
2023-05-23T22:53:22.766Z,11.27
2023-05-23T22:58:24.991Z,9.75
2023-05-23T23:03:26.974Z,11.38
2023-05-23T23:08:28.835Z,6.90
2023-05-23T23:13:30.873Z,8.63
2023-05-23T23:18:32.693Z,9.07
2023-05-23T23:23:36.606Z,16.08
2023-05-23T23:28:38.995Z,18.30
2023-05-23T23:33:40.907Z,16.15
2023-05-23T23:38:42.700Z,7.68
2023-05-23T23:43:44.786Z,11.32
2023-05-23T23:48:46.587Z,11.38
2023-05-23T23:53:50.906Z,9.35
2023-05-23T23:58:54.402Z,9.32
